Time,TemperatureF,DewpointF,PressureIn,WindDirection,WindDirectionDegrees,WindSpeedMPH,WindSpeedGustMPH,Humidity,HourlyPrecipIn,Conditions,Clouds,dailyrainin,SoftwareType,DateUTC
2013-07-10 00:13:00,76.5,73.0,30.10,ESE,104,0.0,2.0,89,0.00,,,0.00,weatherlink.com 1.10,2013-07-10 04:13:00,
2013-07-10 00:28:00,76.7,74.0,30.10,ESE,103,1.0,2.0,90,0.00,,,0.00,weatherlink.com 1.10,2013-07-10 04:28:00,
2013-07-10 00:43:00,76.8,73.0,30.09,ENE,75,0.0,3.0,89,0.00,,,0.00,weatherlink.com 1.10,2013-07-10 04:43:00,
2013-07-10 00:58:00,76.4,73.0,30.09,ESE,116,0.0,0.0,90,0.00,,,0.00,weatherlink.com 1.10,2013-07-10 04:58:00,
2013-07-10 01:13:00,76.1,73.0,30.09,ESE,123,0.0,0.0,90,0.00,,,0.00,weatherlink.com 1.10,2013-07-10 05:13:00,
2013-07-10 01:28:00,75.4,73.0,30.09,ESE,123,0.0,0.0,92,0.00,,,0.00,weatherlink.com 1.10,2013-07-10 05:28:00,
2013-07-10 01:43:00,74.6,73.0,30.09,ESE,122,0.0,0.0,93,0.00,,,0.00,weatherlink.com 1.10,2013-07-10 05:43:00,
2013-07-10 01:58:00,74.6,73.0,30.08,ESE,122,0.0,0.0,94,0.00,,,0.00,weatherlink.com 1.10,2013-07-10 05:58:00,
2013-07-10 02:13:00,75.1,73.0,30.08,ESE,112,0.0,0.0,94,0.00,,,0.00,weatherlink.com 1.10,2013-07-10 06:13:00,
2013-07-10 02:28:00,75.2,73.0,30.08,ESE,119,0.0,0.0,94,0.00,,,0.00,weatherlink.com 1.10,2013-07-10 06:28:00,
2013-07-10 02:43:00,74.6,73.0,30.08,SE,133,0.0,0.0,94,0.00,,,0.00,weatherlink.com 1.10,2013-07-10 06:43:00,
2013-07-10 02:58:00,74.0,73.0,30.08,SE,133,0.0,0.0,95,0.00,,,0.00,weatherlink.com 1.10,2013-07-10 06:58:00,
2013-07-10 03:13:00,73.6,72.0,30.07,SE,132,0.0,0.0,96,0.00,,,0.00,weatherlink.com 1.10,2013-07-10 07:13:00,
2013-07-10 03:28:00,73.4,73.0,30.07,SE,132,0.0,0.0,97,0.00,,,0.00,weatherlink.com 1.10,2013-07-10 07:28:00,
2013-07-10 03:43:00,72.6,72.0,30.07,SE,132,0.0,0.0,97,0.00,,,0.00,weatherlink.com 1.10,2013-07-10 07:43:00,
2013-07-10 03:58:00,72.2,71.0,30.07,SE,132,0.0,0.0,97,0.00,,,0.00,weatherlink.com 1.10,2013-07-10 07:58:00,
2013-07-10 04:13:00,72.3,72.0,30.07,SE,132,0.0,0.0,98,0.00,,,0.00,weatherlink.com 1.10,2013-07-10 08:13:00,
2013-07-10 04:28:00,72.3,72.0,30.07,SE,132,0.0,0.0,98,0.00,,,0.00,weatherlink.com 1.10,2013-07-10 08:28:00,
2013-07-10 04:43:00,72.1,72.0,30.07,SE,132,0.0,0.0,98,0.00,,,0.00,weatherlink.com 1.10,2013-07-10 08:43:00,
2013-07-10 04:58:00,71.8,71.0,30.07,SE,132,0.0,0.0,98,0.00,,,0.00,weatherlink.com 1.10,2013-07-10 08:58:00,
2013-07-10 05:13:00,72.2,72.0,30.06,SE,132,0.0,0.0,98,0.00,,,0.00,weatherlink.com 1.10,2013-07-10 09:13:00,
2013-07-10 05:28:00,71.6,71.0,30.06,SE,132,0.0,0.0,98,0.00,,,0.00,weatherlink.com 1.10,2013-07-10 09:28:00,
2013-07-10 05:44:00,71.9,71.0,30.06,SE,132,0.0,0.0,98,0.00,,,0.00,weatherlink.com 1.10,2013-07-10 09:44:00,
2013-07-10 05:59:00,72.0,72.0,30.06,SE,132,0.0,0.0,99,0.00,,,0.00,weatherlink.com 1.10,2013-07-10 09:59:00,
2013-07-10 06:14:00,72.2,72.0,30.05,SE,132,0.0,0.0,99,0.00,,,0.00,weatherlink.com 1.10,2013-07-10 10:14:00,
2013-07-10 06:29:00,72.0,72.0,30.06,SE,132,0.0,0.0,99,0.00,,,0.00,weatherlink.com 1.10,2013-07-10 10:29:00,
2013-07-10 06:44:00,71.9,72.0,30.06,SE,132,0.0,0.0,99,0.00,,,0.00,weatherlink.com 1.10,2013-07-10 10:44:00,
2013-07-10 07:00:00,72.0,72.0,30.07,SE,132,0.0,0.0,99,0.00,,,0.00,weatherlink.com 1.10,2013-07-10 11:00:00,
2013-07-10 07:14:00,72.4,72.0,30.06,SE,133,0.0,0.0,99,0.00,,,0.00,weatherlink.com 1.10,2013-07-10 11:14:00,
2013-07-10 07:29:00,72.9,73.0,30.06,SE,132,0.0,0.0,99,0.00,,,0.00,weatherlink.com 1.10,2013-07-10 11:29:00,
2013-07-10 07:44:00,73.7,73.0,30.06,NE,43,0.0,0.0,99,0.00,,,0.00,weatherlink.com 1.10,2013-07-10 11:44:00,
2013-07-10 07:59:00,74.4,74.0,30.07,NNE,18,0.0,0.0,99,0.00,,,0.00,weatherlink.com 1.10,2013-07-10 11:59:00,
2013-07-10 08:14:00,75.2,75.0,30.07,NE,34,0.0,0.0,99,0.00,,,0.00,weatherlink.com 1.10,2013-07-10 12:14:00,
2013-07-10 08:29:00,77.2,77.0,30.07,NNE,19,0.0,0.0,98,0.00,,,0.00,weatherlink.com 1.10,2013-07-10 12:29:00,
2013-07-10 08:44:00,78.9,77.0,30.08,NNW,335,2.0,3.0,92,0.00,,,0.00,weatherlink.com 1.10,2013-07-10 12:44:00,
2013-07-10 08:59:00,79.0,76.0,30.09,NE,40,1.0,2.0,89,0.00,,,0.00,weatherlink.com 1.10,2013-07-10 12:59:00,
2013-07-10 09:14:00,79.0,76.0,30.08,ENE,70,0.0,0.0,89,0.00,,,0.00,weatherlink.com 1.10,2013-07-10 13:14:00,
2013-07-10 09:29:00,81.7,76.0,30.08,ESE,113,0.0,0.0,83,0.00,,,0.00,weatherlink.com 1.10,2013-07-10 13:29:00,
2013-07-10 09:44:00,82.5,74.0,30.08,NW,314,0.0,0.0,76,0.00,,,0.00,weatherlink.com 1.10,2013-07-10 13:44:00,
2013-07-10 09:59:00,83.5,75.0,30.07,NNE,23,0.0,0.0,75,0.00,,,0.00,weatherlink.com 1.10,2013-07-10 13:59:00,
2013-07-10 10:14:00,83.4,75.0,30.08,NNE,15,2.0,4.0,76,0.00,,,0.00,weatherlink.com 1.10,2013-07-10 14:14:00,
2013-07-10 10:29:00,84.5,74.0,30.08,SE,129,1.0,3.0,71,0.00,,,0.00,weatherlink.com 1.10,2013-07-10 14:29:00,
2013-07-10 10:44:00,85.2,75.0,30.08,NNW,347,2.0,4.0,71,0.00,,,0.00,weatherlink.com 1.10,2013-07-10 14:44:00,
2013-07-10 10:59:00,85.6,73.0,30.08,SSE,149,0.0,5.0,67,0.00,,,0.00,weatherlink.com 1.10,2013-07-10 14:59:00,
2013-07-10 11:14:00,85.7,74.0,30.07,SE,143,2.0,7.0,67,0.00,,,0.00,weatherlink.com 1.10,2013-07-10 15:14:00,
2013-07-10 11:29:00,86.4,74.0,30.07,ESE,113,3.0,7.0,67,0.00,,,0.00,weatherlink.com 1.10,2013-07-10 15:29:00,
2013-07-10 11:44:00,86.5,74.0,30.07,ESE,123,3.0,7.0,66,0.00,,,0.00,weatherlink.com 1.10,2013-07-10 15:44:00,
2013-07-10 11:59:00,87.2,74.0,30.07,ENE,64,0.0,5.0,64,0.00,,,0.00,weatherlink.com 1.10,2013-07-10 15:59:00,
2013-07-10 12:14:00,87.5,73.0,30.06,NNE,23,5.0,6.0,63,0.00,,,0.00,weatherlink.com 1.10,2013-07-10 16:14:00,
2013-07-10 12:29:00,88.1,73.0,30.06,SE,124,1.0,6.0,61,0.00,,,0.00,weatherlink.com 1.10,2013-07-10 16:29:00,
2013-07-10 12:44:00,87.5,73.0,30.06,East,89,3.0,7.0,63,0.00,,,0.00,weatherlink.com 1.10,2013-07-10 16:44:00,
2013-07-10 13:00:00,88.5,73.0,30.06,NNE,25,2.0,7.0,61,0.00,,,0.00,weatherlink.com 1.10,2013-07-10 17:00:00,
2013-07-10 13:14:00,89.3,72.0,30.05,NW,321,4.0,6.0,57,0.00,,,0.00,weatherlink.com 1.10,2013-07-10 17:14:00,
2013-07-10 13:30:00,90.1,74.0,30.05,NNE,28,4.0,6.0,59,0.00,,,0.00,weatherlink.com 1.10,2013-07-10 17:30:00,
2013-07-10 13:45:00,89.1,73.0,30.04,NNW,339,3.0,5.0,60,0.00,,,0.00,weatherlink.com 1.10,2013-07-10 17:45:00,
2013-07-10 14:00:00,89.3,74.0,30.03,NNW,345,5.0,7.0,60,0.00,,,0.00,weatherlink.com 1.10,2013-07-10 18:00:00,
2013-07-10 14:15:00,89.6,72.0,30.02,NNE,25,2.0,7.0,56,0.00,,,0.00,weatherlink.com 1.10,2013-07-10 18:15:00,
2013-07-10 14:30:00,89.1,73.0,30.01,NE,45,2.0,7.0,59,0.00,,,0.00,weatherlink.com 1.10,2013-07-10 18:30:00,
2013-07-10 14:45:00,88.6,73.0,30.01,NW,316,0.0,7.0,60,0.00,,,0.00,weatherlink.com 1.10,2013-07-10 18:45:00,
2013-07-10 15:00:00,87.9,72.0,30.00,East,101,0.0,5.0,60,0.00,,,0.00,weatherlink.com 1.10,2013-07-10 19:00:00,
2013-07-10 15:15:00,89.5,73.0,30.00,ESE,108,2.0,6.0,59,0.00,,,0.00,weatherlink.com 1.10,2013-07-10 19:15:00,
2013-07-10 15:30:00,91.7,74.0,30.00,East,82,7.0,8.0,56,0.00,,,0.00,weatherlink.com 1.10,2013-07-10 19:30:00,
2013-07-10 15:45:00,90.8,73.0,29.99,East,98,5.0,9.0,57,0.00,,,0.00,weatherlink.com 1.10,2013-07-10 19:45:00,
2013-07-10 16:00:00,91.1,73.0,29.98,ESE,105,5.0,8.0,55,0.00,,,0.00,weatherlink.com 1.10,2013-07-10 20:00:00,
2013-07-10 16:15:00,90.6,72.0,29.98,SSE,148,1.0,8.0,55,0.00,,,0.00,weatherlink.com 1.10,2013-07-10 20:15:00,
2013-07-10 16:30:00,90.2,72.0,29.97,SE,125,4.0,10.0,55,0.00,,,0.00,weatherlink.com 1.10,2013-07-10 20:30:00,
2013-07-10 16:45:00,91.2,72.0,29.96,South,172,3.0,6.0,53,0.00,,,0.00,weatherlink.com 1.10,2013-07-10 20:45:00,
2013-07-10 17:00:00,91.1,74.0,29.96,SSE,153,3.0,11.0,58,0.00,,,0.00,weatherlink.com 1.10,2013-07-10 21:00:00,
2013-07-10 17:15:00,87.9,74.0,29.96,SE,139,4.0,7.0,63,0.00,,,0.00,weatherlink.com 1.10,2013-07-10 21:15:00,
2013-07-10 17:30:00,88.8,74.0,29.96,ESE,110,7.0,7.0,62,0.00,,,0.00,weatherlink.com 1.10,2013-07-10 21:30:00,
2013-07-10 17:45:00,89.8,73.0,29.96,SSE,157,2.0,9.0,58,0.00,,,0.00,weatherlink.com 1.10,2013-07-10 21:45:00,
2013-07-10 18:00:00,89.5,73.0,29.96,SSW,198,0.0,7.0,59,0.00,,,0.00,weatherlink.com 1.10,2013-07-10 22:00:00,
2013-07-10 18:15:00,89.0,73.0,29.97,SSE,152,2.0,8.0,59,0.00,,,0.00,weatherlink.com 1.10,2013-07-10 22:15:00,
2013-07-10 18:30:00,81.4,74.0,29.98,ESE,116,4.0,12.0,78,0.09,,,0.09,weatherlink.com 1.10,2013-07-10 22:30:00,
2013-07-10 18:45:00,78.0,75.0,29.97,SE,132,2.0,3.0,90,0.11,,,0.11,weatherlink.com 1.10,2013-07-10 22:45:00,
2013-07-10 19:00:00,77.7,75.0,29.97,SE,128,0.0,1.0,91,0.11,,,0.11,weatherlink.com 1.10,2013-07-10 23:00:00,
2013-07-10 19:15:00,77.4,75.0,29.98,East,91,7.0,9.0,91,0.11,,,0.11,weatherlink.com 1.10,2013-07-10 23:15:00,
2013-07-10 19:30:00,78.4,76.0,29.98,SE,132,6.0,10.0,92,0.02,,,0.11,weatherlink.com 1.10,2013-07-10 23:30:00,
2013-07-10 19:45:00,78.0,75.0,29.99,South,173,3.0,8.0,90,0.00,,,0.11,weatherlink.com 1.10,2013-07-10 23:45:00,
2013-07-10 20:00:00,77.2,74.0,29.99,SE,127,3.0,9.0,89,0.00,,,0.11,weatherlink.com 1.10,2013-07-11 00:00:00,
2013-07-10 20:15:00,76.1,73.0,29.99,SE,124,2.0,7.0,91,0.00,,,0.11,weatherlink.com 1.10,2013-07-11 00:15:00,
2013-07-10 20:30:00,75.5,73.0,29.99,SE,141,3.0,8.0,92,0.00,,,0.11,weatherlink.com 1.10,2013-07-11 00:30:00,
2013-07-10 20:45:00,75.2,73.0,29.99,SE,131,1.0,5.0,93,0.00,,,0.11,weatherlink.com 1.10,2013-07-11 00:45:00,
2013-07-10 21:00:00,74.9,73.0,29.99,SE,141,1.0,2.0,93,0.00,,,0.11,weatherlink.com 1.10,2013-07-11 01:00:00,
2013-07-10 21:15:00,74.7,73.0,30.00,SW,214,0.0,2.0,94,0.00,,,0.11,weatherlink.com 1.10,2013-07-11 01:15:00,
2013-07-10 21:30:00,74.6,73.0,30.02,SSW,199,0.0,0.0,94,0.00,,,0.11,weatherlink.com 1.10,2013-07-11 01:30:00,
2013-07-10 21:45:00,74.5,73.0,30.02,SE,128,0.0,0.0,95,0.00,,,0.11,weatherlink.com 1.10,2013-07-11 01:45:00,
2013-07-10 22:00:00,74.3,73.0,30.03,SE,131,0.0,0.0,95,0.00,,,0.11,weatherlink.com 1.10,2013-07-11 02:00:00,
2013-07-10 22:15:00,74.5,73.0,30.03,SE,124,0.0,0.0,94,0.00,,,0.11,weatherlink.com 1.10,2013-07-11 02:15:00,
2013-07-10 22:30:00,74.2,73.0,30.03,SE,124,0.0,0.0,95,0.00,,,0.11,weatherlink.com 1.10,2013-07-11 02:30:00,
2013-07-10 22:45:00,73.9,72.0,30.04,SE,124,0.0,0.0,95,0.00,,,0.11,weatherlink.com 1.10,2013-07-11 02:45:00,
2013-07-10 23:00:00,73.9,73.0,30.04,SE,127,0.0,0.0,96,0.00,,,0.11,weatherlink.com 1.10,2013-07-11 03:00:00,
2013-07-10 23:15:00,74.0,73.0,30.04,SE,142,0.0,0.0,96,0.00,,,0.11,weatherlink.com 1.10,2013-07-11 03:15:00,
2013-07-10 23:30:00,74.0,73.0,30.04,SE,141,0.0,0.0,96,0.00,,,0.11,weatherlink.com 1.10,2013-07-11 03:30:00,
2013-07-10 23:45:00,74.0,73.0,30.04,SE,131,0.0,0.0,96,0.00,,,0.11,weatherlink.com 1.10,2013-07-11 03:45:00,